Time;durP1;ratioP1;P1;durP2;ratioP2;P2;SDS_P1;SDS_P2;PMS_P1;PMS_P2;Temp;Humidity;BMP_temperature;BMP_pressure;BME280_temperature;BME280_humidity;BME280_pressure;Samples;Min_cycle;Max_cycle;Signal;HPM_P1;HPM_P2
2022/06/09 00:01:53;;;;;;;29.83;14.10;;;15.50;99.90;;;;;;5149550;27;20042;-69
2022/06/09 00:04:30;;;;;;;31.52;14.70;;;15.70;99.90;;;;;;5114326;27;20049;-69
2022/06/09 00:07:02;;;;;;;32.85;14.65;;;15.60;99.90;;;;;;5150233;27;20099;-69
2022/06/09 00:09:37;;;;;;;32.63;14.82;;;15.50;99.90;;;;;;5151046;27;20031;-70
2022/06/09 00:12:03;;;;;;;32.63;13.85;;;15.50;99.90;;;;;;5151255;27;20042;-70
2022/06/09 00:14:29;;;;;;;33.30;14.63;;;15.50;99.90;;;;;;5149626;27;20046;-69
2022/06/09 00:16:56;;;;;;;38.47;13.85;;;15.50;99.90;;;;;;5150069;27;20403;-69
2022/06/09 00:19:22;;;;;;;39.72;14.38;;;15.50;99.90;;;;;;5150609;27;20039;-69
2022/06/09 00:21:47;;;;;;;36.38;14.10;;;15.50;99.90;;;;;;5149703;27;20039;-69
2022/06/09 00:24:14;;;;;;;37.58;13.75;;;15.50;99.90;;;;;;5150420;27;20030;-70
2022/06/09 00:26:39;;;;;;;39.42;13.30;;;15.50;99.90;;;;;;5150301;27;20042;-70
2022/06/09 00:29:05;;;;;;;36.97;14.48;;;15.50;99.90;;;;;;5149444;27;20566;-69
2022/06/09 00:31:32;;;;;;;37.78;14.30;;;15.70;99.90;;;;;;5146376;27;20035;-68
2022/06/09 00:33:58;;;;;;;39.95;14.38;;;15.60;99.90;;;;;;5145111;27;20039;-68
2022/06/09 00:36:24;;;;;;;42.08;14.48;;;15.50;99.90;;;;;;5131053;27;20467;-69
2022/06/09 00:38:50;;;;;;;36.85;14.23;;;15.50;99.90;;;;;;5150059;27;20440;-69
2022/06/09 00:41:15;;;;;;;43.85;14.80;;;15.50;99.90;;;;;;5166295;27;20034;-68
2022/06/09 00:43:44;;;;;;;37.08;14.45;;;15.50;99.90;;;;;;5148111;27;20043;-69
2022/06/09 00:46:13;;;;;;;43.22;15.38;;;15.50;99.90;;;;;;5147209;27;20045;-69
2022/06/09 00:48:53;;;;;;;37.63;14.45;;;15.50;99.90;;;;;;5129529;27;20148;-69
2022/06/09 00:51:38;;;;;;;39.92;14.77;;;15.50;99.90;;;;;;5146775;27;20035;-69
2022/06/09 00:54:19;;;;;;;36.05;14.23;;;15.50;99.90;;;;;;5112398;27;20054;-69
2022/06/09 00:57:01;;;;;;;37.78;14.93;;;15.50;99.90;;;;;;5137425;27;20110;-68
2022/06/09 00:59:29;;;;;;;43.65;14.85;;;15.50;99.90;;;;;;5150728;27;20034;-69
2022/06/09 01:01:59;;;;;;;32.03;14.43;;;15.50;99.90;;;;;;5149153;27;20047;-69
2022/06/09 01:04:26;;;;;;;36.17;14.57;;;15.50;99.90;;;;;;5149132;27;20108;-69
2022/06/09 01:06:56;;;;;;;38.50;15.10;;;15.50;99.90;;;;;;5149854;27;20200;-69
2022/06/09 01:09:24;;;;;;;37.58;15.85;;;15.50;99.90;;;;;;5149469;27;20074;-69
2022/06/09 01:11:52;;;;;;;32.83;15.60;;;15.50;99.90;;;;;;5130530;27;20046;-69
2022/06/09 01:14:24;;;;;;;42.80;15.65;;;15.40;99.90;;;;;;5113480;27;20084;-69
2022/06/09 01:17:08;;;;;;;39.10;14.90;;;15.40;99.90;;;;;;5129261;27;20050;-69
2022/06/09 01:19:56;;;;;;;31.65;15.20;;;15.40;99.90;;;;;;5131062;27;20135;-69
2022/06/09 01:22:57;;;;;;;43.90;16.80;;;15.40;99.90;;;;;;5140260;27;20439;-68
2022/06/09 01:26:10;;;;;;;37.45;15.38;;;15.40;99.90;;;;;;5149676;27;20511;-69
2022/06/09 01:28:56;;;;;;;36.22;16.02;;;15.40;99.90;;;;;;5058259;27;20081;-69
2022/06/09 01:31:31;;;;;;;39.45;16.52;;;15.40;99.90;;;;;;5149465;27;20436;-68
2022/06/09 01:34:11;;;;;;;45.03;16.73;;;15.40;99.90;;;;;;5149756;27;20042;-69
2022/06/09 01:37:03;;;;;;;44.58;16.98;;;15.40;99.90;;;;;;5147971;27;20103;-69
2022/06/09 01:39:45;;;;;;;40.35;16.35;;;15.40;99.90;;;;;;5130763;27;20055;-69
2022/06/09 01:42:21;;;;;;;40.78;18.55;;;15.40;99.90;;;;;;5149320;27;20034;-69
2022/06/09 01:44:47;;;;;;;40.20;16.75;;;15.30;99.90;;;;;;5149249;27;20513;-69
2022/06/09 01:47:17;;;;;;;38.83;16.55;;;15.40;99.90;;;;;;5112201;27;20111;-69
2022/06/09 01:49:43;;;;;;;41.80;18.02;;;15.40;99.90;;;;;;5149026;27;20051;-69
2022/06/09 01:52:09;;;;;;;39.75;16.67;;;15.30;99.90;;;;;;5149171;27;20043;-69
2022/06/09 01:54:37;;;;;;;41.40;17.17;;;15.30;99.90;;;;;;5129753;27;20050;-69
2022/06/09 01:57:15;;;;;;;44.05;18.27;;;15.30;99.90;;;;;;5150988;27;20118;-69
2022/06/09 01:59:44;;;;;;;37.38;17.08;;;15.20;99.90;;;;;;5149056;27;20051;-69
2022/06/09 02:02:20;;;;;;;39.63;18.25;;;15.30;99.90;;;;;;5129618;27;20125;-69
2022/06/09 02:04:50;;;;;;;46.13;19.45;;;15.20;99.90;;;;;;5147219;27;20035;-69
2022/06/09 02:07:17;;;;;;;36.83;17.75;;;15.20;99.90;;;;;;5148362;27;20039;-69
2022/06/09 02:09:43;;;;;;;44.13;19.52;;;15.30;99.90;;;;;;5151111;27;20409;-69
2022/06/09 02:12:16;;;;;;;38.00;18.00;;;15.20;99.90;;;;;;5148921;27;20057;-69
2022/06/09 02:14:50;;;;;;;35.20;18.05;;;15.20;99.90;;;;;;5148495;27;20042;-69
2022/06/09 02:17:17;;;;;;;40.33;18.88;;;15.20;99.90;;;;;;5148870;27;20047;-69
2022/06/09 02:19:44;;;;;;;35.55;18.17;;;15.20;99.90;;;;;;5129687;27;20043;-69
2022/06/09 02:22:12;;;;;;;38.58;19.05;;;15.30;99.90;;;;;;5148116;27;20047;-69
2022/06/09 02:24:38;;;;;;;40.65;18.75;;;15.20;99.90;;;;;;5149348;27;20080;-68
2022/06/09 02:27:05;;;;;;;38.15;18.95;;;15.30;99.90;;;;;;5153258;27;20034;-69
2022/06/09 02:29:32;;;;;;;38.53;18.42;;;15.20;99.90;;;;;;5151868;27;20117;-69
2022/06/09 02:31:58;;;;;;;37.70;17.95;;;15.20;99.90;;;;;;5152384;27;20114;-69
2022/06/09 02:34:23;;;;;;;37.75;18.20;;;15.20;99.90;;;;;;5152120;27;20042;-69
2022/06/09 02:36:49;;;;;;;41.13;19.38;;;15.10;99.90;;;;;;5132357;27;20051;-69
2022/06/09 02:39:15;;;;;;;39.85;18.15;;;15.10;99.90;;;;;;5168759;27;20478;-68
2022/06/09 02:41:41;;;;;;;32.15;17.70;;;15.10;99.90;;;;;;5151750;27;20583;-69
2022/06/09 02:44:06;;;;;;;36.55;17.38;;;15.10;99.90;;;;;;5134724;27;20039;-69
2022/06/09 02:46:32;;;;;;;39.63;18.23;;;15.10;99.90;;;;;;5153225;27;20038;-69
2022/06/09 02:48:58;;;;;;;37.83;18.23;;;15.40;99.90;;;;;;5133503;27;20466;-69
2022/06/09 02:51:31;;;;;;;39.65;18.48;;;15.10;99.90;;;;;;5134354;27;20042;-69
2022/06/09 02:53:59;;;;;;;40.47;18.10;;;15.10;99.90;;;;;;5133063;27;20042;-69
2022/06/09 02:56:25;;;;;;;37.75;18.25;;;15.10;99.90;;;;;;5151887;27;20149;-68
2022/06/09 02:58:52;;;;;;;32.22;18.17;;;15.10;99.90;;;;;;5168575;27;20047;-69
2022/06/09 03:01:18;;;;;;;32.78;17.45;;;15.10;99.90;;;;;;5150847;27;20489;-69
2022/06/09 03:03:44;;;;;;;39.92;18.65;;;15.10;99.90;;;;;;5151748;27;20042;-68
2022/06/09 03:06:09;;;;;;;34.72;18.52;;;16.10;99.90;;;;;;5151803;27;20364;-69
2022/06/09 03:08:36;;;;;;;36.63;18.08;;;15.00;99.90;;;;;;5116244;27;20684;-69
2022/06/09 03:11:01;;;;;;;39.08;18.90;;;15.00;99.90;;;;;;5132682;27;20042;-69
2022/06/09 03:13:27;;;;;;;46.53;19.63;;;15.00;99.90;;;;;;5152810;27;20484;-68
2022/06/09 03:15:53;;;;;;;43.03;18.67;;;15.00;99.90;;;;;;5151999;27;20478;-69
2022/06/09 03:18:19;;;;;;;40.33;18.88;;;15.00;99.90;;;;;;5132041;27;20099;-69
2022/06/09 03:20:46;;;;;;;36.78;19.50;;;15.00;99.90;;;;;;5169706;27;20123;-68
2022/06/09 03:23:12;;;;;;;40.50;19.55;;;15.10;99.90;;;;;;5132874;27;20101;-68
2022/06/09 03:25:38;;;;;;;44.38;19.65;;;15.10;99.90;;;;;;5167795;27;20039;-68
2022/06/09 03:28:04;;;;;;;40.28;20.27;;;15.00;99.90;;;;;;5151989;27;20034;-69
2022/06/09 03:30:32;;;;;;;40.00;21.08;;;15.00;99.90;;;;;;5151884;27;20147;-69
2022/06/09 03:32:57;;;;;;;40.22;20.85;;;15.00;99.90;;;;;;5150179;27;20536;-68
2022/06/09 03:35:23;;;;;;;44.85;21.73;;;15.00;99.90;;;;;;5150686;27;20038;-68
2022/06/09 03:37:49;;;;;;;39.63;21.45;;;15.00;99.90;;;;;;5150269;27;20517;-69
2022/06/09 03:40:18;;;;;;;46.13;21.50;;;15.00;99.90;;;;;;5151240;27;20114;-69
2022/06/09 03:42:44;;;;;;;47.33;21.80;;;14.90;99.90;;;;;;5152025;27;20047;-68
2022/06/09 03:45:11;;;;;;;48.08;21.05;;;14.90;99.90;;;;;;5150954;27;20892;-69
2022/06/09 03:47:36;;;;;;;42.53;21.73;;;15.00;99.90;;;;;;5150374;27;20035;-68
2022/06/09 03:50:03;;;;;;;51.42;21.95;;;15.00;99.90;;;;;;5132916;27;20047;-69
2022/06/09 03:52:29;;;;;;;47.40;21.70;;;15.00;99.90;;;;;;5149543;27;20055;-69
2022/06/09 03:54:55;;;;;;;36.60;22.27;;;15.00;99.90;;;;;;5151652;27;20091;-69
2022/06/09 03:57:21;;;;;;;43.88;22.60;;;15.10;99.90;;;;;;5151186;27;20039;-69
2022/06/09 03:59:46;;;;;;;44.03;22.42;;;15.00;99.90;;;;;;5131938;27;20480;-68
2022/06/09 04:02:12;;;;;;;43.60;21.40;;;15.00;99.90;;;;;;5131799;27;20492;-69
2022/06/09 04:04:37;;;;;;;47.47;21.73;;;15.10;99.90;;;;;;5146393;27;20179;-68
2022/06/09 04:07:04;;;;;;;44.15;22.63;;;15.00;99.90;;;;;;5144025;27;20113;-68
2022/06/09 04:09:30;;;;;;;42.33;22.63;;;15.00;99.90;;;;;;5150457;27;20039;-69
2022/06/09 04:11:55;;;;;;;43.20;23.10;;;15.70;99.90;;;;;;5151508;27;20394;-69
2022/06/09 04:14:21;;;;;;;47.88;22.98;;;15.10;99.90;;;;;;5131492;27;20042;-69
2022/06/09 04:16:47;;;;;;;45.20;23.58;;;15.40;99.90;;;;;;5130825;27;20046;-69
2022/06/09 04:19:16;;;;;;;46.75;24.10;;;15.10;99.90;;;;;;5131607;27;20151;-69
2022/06/09 04:21:43;;;;;;;52.45;24.42;;;15.20;99.90;;;;;;5139218;27;20352;-69
2022/06/09 04:24:09;;;;;;;42.22;24.20;;;15.10;99.90;;;;;;5145341;27;20135;-68
2022/06/09 04:26:37;;;;;;;44.50;24.25;;;15.10;99.90;;;;;;5150965;27;20038;-69
2022/06/09 04:29:05;;;;;;;39.53;23.20;;;15.10;99.90;;;;;;5150324;27;20339;-69
2022/06/09 04:31:30;;;;;;;40.38;22.88;;;15.10;99.90;;;;;;5131181;27;20050;-69
2022/06/09 04:33:56;;;;;;;41.47;23.45;;;15.10;99.90;;;;;;5131628;27;20466;-69
2022/06/09 04:36:22;;;;;;;42.80;23.45;;;15.10;99.90;;;;;;5149517;27;20039;-69
2022/06/09 04:38:47;;;;;;;37.78;23.00;;;15.10;99.90;;;;;;5148346;27;20087;-69
2022/06/09 04:41:15;;;;;;;40.08;23.33;;;15.10;99.90;;;;;;5149409;27;20106;-68
2022/06/09 04:43:44;;;;;;;38.97;24.15;;;15.10;99.90;;;;;;5114955;27;20435;-69
2022/06/09 04:46:12;;;;;;;37.08;22.70;;;15.20;99.90;;;;;;5149278;27;20405;-69
2022/06/09 04:48:38;;;;;;;44.83;23.25;;;15.20;99.90;;;;;;5148740;27;20043;-69
2022/06/09 04:51:05;;;;;;;38.50;23.20;;;15.20;99.90;;;;;;5149680;27;20043;-69
2022/06/09 04:53:31;;;;;;;39.08;24.70;;;15.20;99.90;;;;;;5129683;27;20105;-69
2022/06/09 04:55:56;;;;;;;37.15;23.55;;;15.10;99.90;;;;;;5129021;27;20082;-69
2022/06/09 04:58:22;;;;;;;38.38;24.30;;;15.20;99.90;;;;;;5137303;27;20035;-68
2022/06/09 05:00:48;;;;;;;43.75;23.80;;;15.20;99.90;;;;;;5144305;27;20038;-68
2022/06/09 05:03:14;;;;;;;38.05;24.10;;;15.20;99.90;;;;;;5151038;27;20034;-69
2022/06/09 05:05:44;;;;;;;42.53;24.08;;;15.20;99.90;;;;;;5130341;27;20047;-68
2022/06/09 05:08:14;;;;;;;38.72;24.95;;;15.20;99.90;;;;;;5148792;27;20050;-68
2022/06/09 05:10:42;;;;;;;40.47;25.38;;;15.10;99.90;;;;;;5149252;27;20039;-68
2022/06/09 05:13:08;;;;;;;39.83;25.85;;;15.20;99.90;;;;;;5131543;27;20061;-69
2022/06/09 05:15:41;;;;;;;40.58;25.35;;;15.20;99.90;;;;;;5149568;27;20050;-69
2022/06/09 05:18:08;;;;;;;39.53;24.83;;;15.10;99.90;;;;;;5130049;27;20080;-69
2022/06/09 05:20:33;;;;;;;44.75;26.45;;;15.20;99.90;;;;;;5149300;27;20486;-69
2022/06/09 05:22:59;;;;;;;39.65;27.10;;;15.20;99.90;;;;;;5148078;27;20054;-69
2022/06/09 05:25:24;;;;;;;40.40;26.90;;;15.20;99.90;;;;;;5149267;27;20042;-69
2022/06/09 05:27:51;;;;;;;43.13;26.63;;;15.40;99.90;;;;;;5131418;27;20085;-69
2022/06/09 05:30:23;;;;;;;42.10;27.20;;;15.30;99.90;;;;;;5149675;27;20125;-70
2022/06/09 05:32:49;;;;;;;41.35;26.48;;;15.50;99.90;;;;;;5136885;27;20160;-69
2022/06/09 05:35:15;;;;;;;45.83;28.33;;;15.30;99.90;;;;;;5112350;28;20134;-69
2022/06/09 05:45:56;;;;;;;37.17;24.50;;;15.50;99.90;;;;;;5127352;27;20043;-69
2022/06/09 05:48:22;;;;;;;44.03;26.25;;;15.60;99.90;;;;;;5128221;28;20115;-70
2022/06/09 05:50:49;;;;;;;40.20;26.50;;;15.60;99.90;;;;;;5129993;27;20098;-69
2022/06/09 05:53:15;;;;;;;43.55;26.45;;;15.60;99.90;;;;;;5127664;28;20047;-69
2022/06/09 05:55:41;;;;;;;36.47;25.75;;;15.70;99.90;;;;;;5137147;27;20122;-70
2022/06/09 05:58:06;;;;;;;38.85;24.00;;;15.70;99.90;;;;;;5148135;27;20092;-69
2022/06/09 06:00:32;;;;;;;38.75;24.67;;;15.80;99.90;;;;;;5150391;27;20035;-69
2022/06/09 06:02:58;;;;;;;35.53;25.38;;;15.70;99.90;;;;;;5151331;27;20057;-69
2022/06/09 06:08:08;;;;;;;34.88;23.92;;;15.70;99.90;;;;;;5152811;27;20043;-69
2022/06/09 06:10:34;;;;;;;36.63;24.52;;;15.60;99.90;;;;;;5153386;27;20385;-69
2022/06/09 06:13:00;;;;;;;34.22;23.75;;;15.70;99.90;;;;;;5152766;27;20067;-69
2022/06/09 06:15:26;;;;;;;33.00;23.55;;;15.80;99.90;;;;;;5154659;27;20382;-69
2022/06/09 06:17:54;;;;;;;31.13;23.77;;;15.80;99.90;;;;;;5154712;27;20034;-69
2022/06/09 06:20:20;;;;;;;32.47;22.98;;;15.90;99.90;;;;;;5154500;27;20063;-70
2022/06/09 06:22:46;;;;;;;32.63;23.40;;;15.90;99.90;;;;;;5134985;27;20122;-69
2022/06/09 06:25:11;;;;;;;31.98;24.20;;;15.90;99.90;;;;;;5121962;27;20195;-70
2022/06/09 06:27:37;;;;;;;30.75;24.55;;;15.90;99.90;;;;;;5152057;27;20075;-69
2022/06/09 06:30:03;;;;;;;31.58;23.05;;;15.90;99.90;;;;;;5152568;27;20046;-70
2022/06/09 06:32:29;;;;;;;30.30;22.38;;;16.00;99.90;;;;;;5151734;27;20042;-70
2022/06/09 06:34:54;;;;;;;31.52;22.95;;;15.90;99.90;;;;;;5151478;27;20041;-69
2022/06/09 06:37:20;;;;;;;32.60;24.15;;;16.40;99.90;;;;;;5168153;27;20203;-69
2022/06/09 06:39:45;;;;;;;30.02;23.10;;;16.10;99.90;;;;;;5168887;27;20042;-69
2022/06/09 06:42:11;;;;;;;33.38;23.33;;;16.80;99.90;;;;;;5131718;27;20445;-69
2022/06/09 06:44:36;;;;;;;31.30;22.65;;;16.20;99.90;;;;;;5152204;27;20117;-69
2022/06/09 06:47:02;;;;;;;26.50;19.88;;;16.30;99.90;;;;;;5134891;27;20426;-71
2022/06/09 06:49:28;;;;;;;25.60;19.77;;;16.40;99.90;;;;;;5150865;27;20050;-69
2022/06/09 06:51:54;;;;;;;26.80;19.50;;;16.40;99.90;;;;;;5152761;27;20035;-70
2022/06/09 06:54:19;;;;;;;24.55;19.17;;;17.00;99.90;;;;;;5125347;27;20475;-69
2022/06/09 06:56:45;;;;;;;23.80;18.98;;;16.40;99.90;;;;;;5130757;27;20085;-69
2022/06/09 06:59:11;;;;;;;20.77;16.70;;;16.40;99.90;;;;;;5147473;27;20042;-69
2022/06/09 07:01:36;;;;;;;22.67;16.90;;;16.50;99.90;;;;;;5130305;27;20054;-69
2022/06/09 07:04:03;;;;;;;22.65;16.35;;;16.50;99.90;;;;;;5130802;27;20043;-69
2022/06/09 07:06:28;;;;;;;19.77;16.50;;;16.60;99.90;;;;;;5131150;27;20057;-69
2022/06/09 07:08:54;;;;;;;19.13;16.25;;;17.00;99.90;;;;;;5139078;27;20550;-70
2022/06/09 07:11:20;;;;;;;20.17;15.38;;;17.30;99.90;;;;;;5137367;27;20088;-69
2022/06/09 07:13:46;;;;;;;16.75;13.68;;;16.80;99.90;;;;;;5130840;27;20035;-70
2022/06/09 07:16:12;;;;;;;18.30;13.15;;;16.70;99.90;;;;;;5127652;27;20043;-70
2022/06/09 07:18:39;;;;;;;16.95;13.20;;;16.80;99.90;;;;;;5130906;27;20039;-70
2022/06/09 07:21:05;;;;;;;17.83;13.32;;;16.80;99.90;;;;;;5143374;27;20046;-70
2022/06/09 07:23:32;;;;;;;15.18;11.73;;;16.90;99.90;;;;;;5151307;27;20074;-69
2022/06/09 07:25:59;;;;;;;16.75;12.70;;;17.00;99.90;;;;;;5153104;27;20099;-71
2022/06/09 07:28:25;;;;;;;13.77;12.13;;;17.00;99.90;;;;;;5152495;27;20432;-69
2022/06/09 07:30:56;;;;;;;17.80;12.20;;;17.00;99.90;;;;;;5151064;27;20129;-70
2022/06/09 07:33:23;;;;;;;14.93;11.63;;;17.80;99.90;;;;;;5133213;27;20527;-69
2022/06/09 07:35:51;;;;;;;14.48;10.70;;;17.00;99.90;;;;;;5165975;27;20117;-69
2022/06/09 07:38:18;;;;;;;13.57;10.05;;;17.10;99.90;;;;;;5132924;27;20038;-69
2022/06/09 07:40:44;;;;;;;10.02;7.63;;;17.10;99.90;;;;;;5152520;27;20131;-70
2022/06/09 07:43:10;;;;;;;11.63;6.68;;;17.30;99.90;;;;;;5142777;27;20050;-69
2022/06/09 07:45:37;;;;;;;7.47;5.75;;;17.30;99.90;;;;;;5130724;27;20459;-70
2022/06/09 07:48:04;;;;;;;9.00;5.95;;;17.40;99.90;;;;;;5130401;27;20547;-70
2022/06/09 07:50:31;;;;;;;8.82;6.05;;;17.40;99.90;;;;;;5111422;27;20107;-70
2022/06/09 07:52:57;;;;;;;9.52;5.53;;;17.40;99.90;;;;;;5129846;27;20058;-71
2022/06/09 07:55:24;;;;;;;8.88;5.07;;;17.50;99.90;;;;;;5130300;27;20408;-71
2022/06/09 07:57:50;;;;;;;9.55;5.68;;;17.60;99.90;;;;;;5129342;27;20108;-71
2022/06/09 08:00:17;;;;;;;8.88;4.75;;;17.60;99.90;;;;;;5130958;27;20043;-71
2022/06/09 08:02:43;;;;;;;9.18;4.55;;;17.70;99.90;;;;;;5129164;27;20046;-71
2022/06/09 08:05:09;;;;;;;7.78;3.47;;;17.70;99.90;;;;;;5128939;27;20141;-70
2022/06/09 08:07:36;;;;;;;6.28;3.38;;;17.80;99.90;;;;;;5121260;27;20046;-69
2022/06/09 08:10:03;;;;;;;5.70;3.15;;;17.90;99.90;;;;;;5150779;27;20050;-71
2022/06/09 09:47:46;;;;;;;4.60;1.85;;;19.20;99.90;;;;;;5059231;28;20118;-70
2022/06/09 09:50:26;;;;;;;4.43;1.77;;;20.50;99.90;;;;;;5043006;28;20453;-70
2022/06/09 09:52:57;;;;;;;7.88;1.98;;;20.60;99.90;;;;;;5045545;28;20041;-69
2022/06/09 09:55:30;;;;;;;5.78;1.92;;;20.70;99.90;;;;;;5028493;28;20449;-70
2022/06/09 09:58:19;;;;;;;5.47;1.67;;;20.70;99.90;;;;;;4990778;28;20056;-70
2022/06/09 10:00:47;;;;;;;5.85;1.73;;;20.90;99.90;;;;;;5025160;28;20462;-70
2022/06/09 10:08:35;;;;;;;6.83;2.10;;;21.20;99.90;;;;;;5023812;28;20160;-69
2022/06/09 10:09:29;;;;;;;8.02;2.30;;;21.90;99.90;;;;;;5023753;28;20351;-70
2022/06/09 10:12:06;;;;;;;5.97;1.92;;;25.00;99.90;;;;;;5006559;28;20049;-71
2022/06/09 10:14:38;;;;;;;6.35;1.80;;;27.70;99.50;;;;;;5039140;28;20107;-69
2022/06/09 10:17:09;;;;;;;5.00;1.70;;;30.10;96.00;;;;;;5042968;28;20543;-70
2022/06/09 10:19:35;;;;;;;8.05;1.67;;;30.70;94.90;;;;;;5045808;28;20076;-69
2022/06/09 10:22:15;;;;;;;6.03;1.88;;;29.70;95.40;;;;;;5010767;28;20466;-69
2022/06/09 10:24:56;;;;;;;4.32;1.58;;;28.70;95.70;;;;;;5043390;28;20043;-69
2022/06/09 10:27:28;;;;;;;9.68;1.77;;;27.50;96.60;;;;;;5043369;28;20060;-69
2022/06/09 10:30:19;;;;;;;5.82;1.80;;;26.90;98.60;;;;;;5027057;28;20474;-70
2022/06/09 10:33:04;;;;;;;5.25;1.88;;;27.60;99.10;;;;;;5034463;28;20064;-70
2022/06/09 10:35:39;;;;;;;6.10;1.77;;;27.40;96.20;;;;;;5038270;28;20056;-71
2022/06/09 10:38:16;;;;;;;7.15;1.63;;;28.80;96.60;;;;;;5024419;28;20048;-70
2022/06/09 10:40:54;;;;;;;4.68;1.50;;;30.90;93.60;;;;;;5043643;28;20080;-70
2022/06/09 10:43:27;;;;;;;5.88;1.70;;;31.40;92.20;;;;;;4998487;28;20506;-70
2022/06/09 10:45:59;;;;;;;6.70;1.77;;;30.60;92.00;;;;;;5024894;28;20057;-71
2022/06/09 10:57:27;;;;;;;6.40;1.80;;;30.60;90.30;;;;;;5034938;28;20057;-71
2022/06/09 11:00:15;;;;;;;5.10;1.45;;;29.40;87.50;;;;;;5013888;28;20045;-70
2022/06/09 11:02:49;;;;;;;5.65;1.90;;;29.00;89.60;;;;;;5014729;28;20140;-71
2022/06/09 11:05:19;;;;;;;8.52;1.92;;;28.20;91.50;;;;;;5022639;28;20033;-70
2022/06/09 11:08:18;;;;;;;7.10;1.70;;;27.20;92.70;;;;;;5007619;28;20212;-70
2022/06/09 11:10:59;;;;;;;4.18;1.30;;;26.50;93.20;;;;;;5024593;28;20047;-70
2022/06/09 11:14:02;;;;;;;8.10;1.80;;;25.90;95.70;;;;;;5020428;28;20045;-71
2022/06/09 11:16:49;;;;;;;;;;;25.90;95.60;;;;;;5021489;28;20045;-72
2022/06/09 11:19:57;;;;;;;6.32;1.70;;;25.80;95.80;;;;;;5016956;28;19982;-72
2022/06/09 11:22:40;;;;;;;5.35;1.50;;;25.90;96.20;;;;;;5008307;28;20069;-71
2022/06/09 11:25:29;;;;;;;6.38;1.60;;;26.30;95.10;;;;;;5022104;28;20389;-72
2022/06/09 11:28:07;;;;;;;5.68;1.30;;;27.80;94.40;;;;;;5029602;28;20053;-71
2022/06/09 11:30:51;;;;;;;5.70;1.40;;;29.40;91.40;;;;;;5019318;28;20046;-72
2022/06/09 11:33:45;;;;;;;5.13;1.45;;;29.70;89.30;;;;;;5021800;28;20359;-71
2022/06/09 11:36:14;;;;;;;5.03;1.50;;;30.80;86.90;;;;;;4992306;28;20388;-71
2022/06/09 11:39:09;;;;;;;4.65;1.50;;;32.20;84.20;;;;;;4992988;28;20107;-71
2022/06/09 11:42:03;;;;;;;3.33;1.30;;;33.30;78.30;;;;;;5028892;28;20044;-74
2022/06/09 11:44:32;;;;;;;4.45;1.50;;;33.60;76.30;;;;;;5020291;28;20154;-70
2022/06/09 11:47:05;;;;;;;7.43;2.10;;;33.60;74.80;;;;;;5027782;28;20129;-70
2022/06/09 11:49:33;;;;;;;4.22;1.45;;;34.40;74.40;;;;;;5015488;28;20352;-73
2022/06/09 11:52:02;;;;;;;5.28;1.80;;;33.40;71.10;;;;;;4991610;28;20056;-76
2022/06/09 11:54:53;;;;;;;8.18;1.65;;;34.00;71.30;;;;;;5026575;28;20200;-76
2022/06/09 11:57:22;;;;;;;4.78;1.48;;;34.60;70.80;;;;;;5005922;28;20086;-75
2022/06/09 11:59:59;;;;;;;5.25;1.50;;;35.30;70.70;;;;;;5029229;28;20049;-76
2022/06/09 12:02:36;;;;;;;5.68;1.70;;;36.00;67.40;;;;;;5028500;28;20049;-77
2022/06/09 12:05:05;;;;;;;5.18;1.60;;;35.90;65.90;;;;;;5028859;28;20049;-76
2022/06/09 12:08:10;;;;;;;5.47;1.48;;;35.30;66.00;;;;;;5029066;28;20041;-76
2022/06/09 12:11:01;;;;;;;5.22;1.50;;;34.40;63.60;;;;;;5028184;28;20049;-76
2022/06/09 12:13:34;;;;;;;3.58;1.15;;;33.30;66.00;;;;;;5023626;28;20129;-78
2022/06/09 12:16:05;;;;;;;4.00;1.70;;;31.60;67.20;;;;;;5008308;28;20320;-77
2022/06/09 12:18:35;;;;;;;5.72;1.40;;;30.50;70.30;;;;;;5004326;28;20080;-75
2022/06/09 12:21:09;;;;;;;5.50;1.30;;;29.50;72.10;;;;;;5028012;28;20047;-77
2022/06/09 12:23:50;;;;;;;5.65;1.55;;;28.30;74.00;;;;;;5027550;28;20041;-72
2022/06/09 12:26:19;;;;;;;6.30;1.70;;;27.50;77.60;;;;;;5007459;28;20076;-71
2022/06/09 12:28:50;;;;;;;6.20;1.50;;;27.00;79.80;;;;;;5018855;28;20044;-71
2022/06/09 12:31:35;;;;;;;6.47;1.70;;;26.10;82.00;;;;;;5025155;28;20053;-71
2022/06/09 12:34:03;;;;;;;;;;;25.50;86.70;;;;;;4995301;28;20037;-72
2022/06/09 12:36:50;;;;;;;6.00;1.58;;;25.10;91.60;;;;;;5026525;28;20270;-71
2022/06/09 12:39:23;;;;;;;7.45;1.90;;;24.70;94.40;;;;;;5026735;28;20129;-73
2022/06/09 12:41:51;;;;;;;5.82;1.55;;;24.30;97.00;;;;;;5028526;28;20608;-71
2022/06/09 12:44:22;;;;;;;7.53;1.80;;;24.00;98.70;;;;;;5028453;28;20374;-70
2022/06/09 12:47:15;;;;;;;6.95;1.77;;;23.70;99.90;;;;;;5026780;28;20454;-70
2022/06/09 12:49:42;;;;;;;6.65;1.70;;;23.40;99.90;;;;;;5015132;28;20128;-71
2022/06/09 12:52:35;;;;;;;4.40;1.50;;;23.30;99.90;;;;;;5021819;28;20050;-72
2022/06/09 12:55:28;;;;;;;5.55;1.70;;;23.10;99.90;;;;;;4989150;28;20475;-71
2022/06/09 12:58:06;;;;;;;5.63;1.70;;;23.10;99.90;;;;;;4997224;28;20066;-71
2022/06/09 13:00:40;;;;;;;6.25;1.60;;;23.00;99.90;;;;;;5006775;28;20056;-71
2022/06/09 13:03:23;;;;;;;8.20;1.83;;;22.70;99.90;;;;;;4990588;28;20052;-71
2022/06/09 13:05:49;;;;;;;5.03;1.63;;;22.70;99.90;;;;;;5027117;28;20124;-71
2022/06/09 13:08:18;;;;;;;4.50;1.60;;;22.70;99.90;;;;;;4993795;28;20430;-71
2022/06/09 13:10:57;;;;;;;5.82;1.80;;;22.70;99.90;;;;;;5027678;28;20077;-72
2022/06/09 13:13:29;;;;;;;7.07;1.90;;;22.80;99.90;;;;;;5027361;28;20080;-71
2022/06/09 13:15:57;;;;;;;5.25;1.70;;;22.80;99.90;;;;;;5009434;28;20060;-71
2022/06/09 13:18:31;;;;;;;4.57;1.50;;;22.80;99.90;;;;;;5009967;28;20107;-71
2022/06/09 13:21:02;;;;;;;6.68;1.63;;;22.80;99.90;;;;;;5026961;28;20037;-71
2022/06/09 13:23:30;;;;;;;5.32;1.83;;;22.80;99.90;;;;;;5009872;28;20056;-72
2022/06/09 13:25:56;;;;;;;5.35;1.58;;;22.70;99.90;;;;;;5029414;28;20128;-71
2022/06/09 13:28:37;;;;;;;5.88;1.48;;;22.60;99.90;;;;;;5029213;28;20050;-75
2022/06/09 13:31:24;;;;;;;3.38;1.33;;;22.70;99.90;;;;;;5027310;28;20060;-75
2022/06/09 13:33:57;;;;;;;6.43;1.40;;;22.60;99.90;;;;;;5027697;28;20045;-74
2022/06/09 13:36:39;;;;;;;3.60;1.30;;;22.40;99.90;;;;;;5009103;28;20091;-75
2022/06/09 13:39:33;;;;;;;5.30;1.70;;;22.40;99.90;;;;;;4992754;28;20043;-75
2022/06/09 13:42:14;;;;;;;2.40;1.08;;;22.40;99.90;;;;;;4992373;28;20046;-74
2022/06/09 13:44:54;;;;;;;4.22;1.60;;;22.60;99.90;;;;;;5000183;28;20057;-74
2022/06/09 13:47:25;;;;;;;4.78;1.50;;;22.50;99.90;;;;;;5017526;28;20128;-74
2022/06/09 13:50:12;;;;;;;5.43;1.63;;;22.60;99.90;;;;;;5026722;28;20068;-74
2022/06/09 13:52:44;;;;;;;4.80;1.67;;;22.40;99.90;;;;;;5026769;28;20446;-73
2022/06/09 13:55:28;;;;;;;3.40;1.40;;;22.40;99.90;;;;;;5027052;28;20219;-76
2022/06/09 13:57:56;;;;;;;5.90;1.60;;;22.40;99.90;;;;;;5028154;28;20041;-75
2022/06/09 14:00:32;;;;;;;6.18;1.70;;;22.30;99.90;;;;;;5026874;28;20511;-75
2022/06/09 14:02:58;;;;;;;4.13;1.58;;;22.10;99.90;;;;;;5026594;28;20041;-75
2022/06/09 14:05:24;;;;;;;4.78;1.70;;;22.30;99.90;;;;;;5009557;28;20056;-75
2022/06/09 14:07:49;;;;;;;7.85;1.40;;;22.30;99.90;;;;;;4993511;28;20053;-76
2022/06/09 14:10:18;;;;;;;6.35;1.45;;;22.30;99.90;;;;;;5008451;28;20041;-75
2022/06/09 14:12:44;;;;;;;3.90;1.40;;;22.30;99.90;;;;;;5027461;28;20050;-75
2022/06/09 14:15:11;;;;;;;6.05;1.52;;;22.30;99.90;;;;;;5007667;28;20125;-75
2022/06/09 14:17:37;;;;;;;4.65;1.48;;;22.30;99.90;;;;;;5009643;28;20037;-74
2022/06/09 14:20:04;;;;;;;4.85;1.70;;;22.30;99.90;;;;;;5012325;28;20108;-77
2022/06/09 14:22:29;;;;;;;4.28;1.50;;;22.20;99.90;;;;;;5011465;28;20153;-75
2022/06/09 14:24:55;;;;;;;3.30;1.30;;;22.30;99.90;;;;;;5006812;28;20551;-75
2022/06/09 14:27:20;;;;;;;3.08;1.30;;;22.30;99.90;;;;;;5007249;28;20614;-77
2022/06/09 14:29:47;;;;;;;5.32;1.40;;;22.20;99.90;;;;;;5007868;28;20048;-76
2022/06/09 14:32:16;;;;;;;3.92;1.40;;;22.30;99.90;;;;;;5005997;28;20041;-76
2022/06/09 14:34:41;;;;;;;4.85;1.58;;;22.20;99.90;;;;;;4993949;28;20093;-78
2022/06/09 14:37:10;;;;;;;5.60;1.70;;;22.10;99.90;;;;;;5010566;28;20506;-78
2022/06/09 14:39:36;;;;;;;5.43;1.50;;;22.10;99.90;;;;;;5010571;28;20494;-78
2022/06/09 14:42:04;;;;;;;5.63;1.75;;;22.10;99.90;;;;;;5011555;28;20125;-78
2022/06/09 14:44:30;;;;;;;3.53;1.33;;;22.00;99.90;;;;;;5029971;28;20049;-77
2022/06/09 14:46:56;;;;;;;5.88;1.63;;;22.00;99.90;;;;;;5012379;28;20076;-76
2022/06/09 14:49:22;;;;;;;5.07;1.45;;;21.90;99.90;;;;;;5030228;28;20055;-77
2022/06/09 14:51:49;;;;;;;3.45;1.50;;;21.80;99.90;;;;;;5013648;28;20049;-76
2022/06/09 14:54:16;;;;;;;3.65;1.48;;;21.80;99.90;;;;;;5029251;28;20472;-76